Time;durP1;ratioP1;P1;durP2;ratioP2;P2;SDS_P1;SDS_P2;PMS_P1;PMS_P2;Temp;Humidity;BMP_temperature;BMP_pressure;BME280_temperature;BME280_humidity;BME280_pressure;Samples;Min_cycle;Max_cycle;Signal;HPM_P1;HPM_P2
2022/06/29 00:01:33;;;;;;;1.73;0.87;;;16.70;99.90;;;;;;5099959;28;20594;-92
2022/06/29 00:04:01;;;;;;;1.43;0.87;;;16.60;99.90;;;;;;5101326;28;21268;-93
2022/06/29 00:06:29;;;;;;;1.13;0.83;;;16.60;99.90;;;;;;5105639;28;20454;-91
2022/06/29 00:08:56;;;;;;;1.57;1.20;;;16.60;99.90;;;;;;5100131;28;20478;-92
2022/06/29 00:11:23;;;;;;;1.33;1.23;;;16.60;99.90;;;;;;5098691;28;20470;-92
2022/06/29 00:13:50;;;;;;;2.27;1.40;;;16.60;99.90;;;;;;5115222;28;20449;-90
2022/06/29 00:16:17;;;;;;;1.97;0.60;;;16.70;99.90;;;;;;5117411;28;20458;-91
2022/06/29 00:18:45;;;;;;;1.03;0.90;;;16.70;99.90;;;;;;5126072;27;20455;-93
2022/06/29 00:21:12;;;;;;;2.50;1.10;;;16.80;99.90;;;;;;5118373;28;20896;-91
2022/06/29 00:23:41;;;;;;;1.17;0.87;;;16.60;99.90;;;;;;5106907;28;20477;-92
2022/06/29 00:26:08;;;;;;;1.77;0.93;;;16.50;99.90;;;;;;5104550;28;20644;-93
2022/06/29 00:28:35;;;;;;;2.40;1.30;;;16.50;99.90;;;;;;5108028;28;20549;-93
2022/06/29 00:31:02;;;;;;;1.20;1.07;;;16.50;99.90;;;;;;5104979;27;20485;-91
2022/06/29 00:33:29;;;;;;;1.30;1.20;;;16.50;99.90;;;;;;5107649;28;20461;-94
2022/06/29 00:35:56;;;;;;;1.37;1.27;;;16.50;99.90;;;;;;5104896;27;20507;-91
2022/06/29 00:38:24;;;;;;;2.67;0.90;;;16.50;99.90;;;;;;5104257;28;20463;-93
2022/06/29 00:40:52;;;;;;;5.73;0.73;;;16.60;99.90;;;;;;5104194;28;20462;-90
2022/06/29 00:43:19;;;;;;;3.87;1.07;;;16.60;99.90;;;;;;5103318;28;20669;-93
2022/06/29 00:45:46;;;;;;;1.20;1.07;;;16.60;99.90;;;;;;5099933;28;20470;-91
2022/06/29 00:48:13;;;;;;;3.40;2.03;;;16.60;99.90;;;;;;5106267;28;20550;-92
2022/06/29 00:50:46;;;;;;;1.57;1.00;;;16.50;99.90;;;;;;5106705;28;20462;-92
2022/06/29 00:53:15;;;;;;;1.70;1.60;;;16.40;99.90;;;;;;5105180;28;21210;-93
2022/06/29 00:55:45;;;;;;;2.17;1.13;;;16.50;99.90;;;;;;5105399;28;20456;-92
2022/06/29 00:58:19;;;;;;;1.40;1.20;;;16.40;99.90;;;;;;5105592;28;21052;-93
2022/06/29 01:00:46;;;;;;;1.80;1.30;;;16.60;99.90;;;;;;5103099;28;20446;-91
2022/06/29 01:03:13;;;;;;;2.80;1.70;;;16.70;99.90;;;;;;5107016;28;20474;-93
2022/06/29 01:05:40;;;;;;;1.43;1.20;;;16.70;99.90;;;;;;5105537;28;20458;-91
2022/06/29 01:08:07;;;;;;;1.47;1.37;;;16.70;99.90;;;;;;5107602;28;20538;-91
2022/06/29 01:10:34;;;;;;;2.20;0.80;;;16.70;99.90;;;;;;5106269;27;21096;-91
2022/06/29 01:13:01;;;;;;;1.43;1.33;;;16.50;99.90;;;;;;5106761;28;21049;-91
2022/06/29 01:15:30;;;;;;;2.53;1.20;;;16.40;99.90;;;;;;5106519;28;21076;-93
2022/06/29 01:17:57;;;;;;;2.07;1.10;;;16.50;99.90;;;;;;5100880;28;20472;-91
2022/06/29 01:20:24;;;;;;;1.60;1.37;;;16.50;99.90;;;;;;5105758;28;21221;-91
2022/06/29 01:22:52;;;;;;;5.37;1.80;;;16.50;99.90;;;;;;5106101;28;20454;-91
2022/06/29 01:25:19;;;;;;;15.33;2.20;;;16.40;99.90;;;;;;5102634;28;20475;-91
2022/06/29 01:27:47;;;;;;;2.33;1.83;;;16.40;99.90;;;;;;5105625;28;20493;-92
2022/06/29 01:30:14;;;;;;;4.27;1.37;;;16.40;99.90;;;;;;5108625;28;20469;-92
2022/06/29 01:32:42;;;;;;;2.70;1.80;;;16.40;99.90;;;;;;5106046;28;20458;-92
2022/06/29 01:35:12;;;;;;;2.13;1.93;;;16.50;99.90;;;;;;5105888;28;20501;-92
2022/06/29 01:37:40;;;;;;;3.17;2.00;;;16.60;99.90;;;;;;5106905;28;20502;-91
2022/06/29 01:40:11;;;;;;;3.77;2.10;;;16.70;99.90;;;;;;5107811;28;20562;-93
2022/06/29 01:42:38;;;;;;;2.73;1.40;;;16.80;99.90;;;;;;5101580;28;20458;-92
2022/06/29 01:45:06;;;;;;;3.40;1.53;;;16.90;99.90;;;;;;5104967;28;20458;-94
2022/06/29 01:47:34;;;;;;;12.23;2.17;;;17.00;99.90;;;;;;5105076;28;20469;-92
2022/06/29 01:50:01;;;;;;;4.07;2.20;;;17.10;99.90;;;;;;5106567;28;20515;-92
2022/06/29 01:52:28;;;;;;;4.90;3.03;;;17.00;99.90;;;;;;5097885;28;20458;-92
2022/06/29 01:54:55;;;;;;;3.90;3.00;;;17.00;99.90;;;;;;5103263;28;20462;-92
2022/06/29 01:57:23;;;;;;;4.33;3.10;;;17.00;99.90;;;;;;5105753;28;20461;-91
2022/06/29 01:59:50;;;;;;;2.93;1.83;;;17.00;99.90;;;;;;5104293;28;20469;-94
2022/06/29 02:02:17;;;;;;;2.97;1.70;;;17.00;99.90;;;;;;5107205;28;20453;-91
2022/06/29 02:04:45;;;;;;;2.47;1.63;;;17.00;99.90;;;;;;5105478;27;20469;-93
2022/06/29 02:07:12;;;;;;;1.70;1.43;;;17.00;99.90;;;;;;5105566;28;20469;-94
2022/06/29 02:09:39;;;;;;;1.33;1.00;;;16.90;99.90;;;;;;5103753;28;20496;-94
2022/06/29 02:12:06;;;;;;;1.57;1.10;;;16.70;99.90;;;;;;5105949;28;20545;-92
2022/06/29 02:14:35;;;;;;;1.30;1.10;;;16.70;99.90;;;;;;5103257;28;20480;-92
2022/06/29 02:17:02;;;;;;;9.10;2.13;;;16.70;99.90;;;;;;5102217;28;20495;-92
2022/06/29 02:19:29;;;;;;;2.10;1.57;;;16.60;99.90;;;;;;5103407;28;20528;-91
2022/06/29 02:21:56;;;;;;;5.30;2.00;;;16.70;99.90;;;;;;5104919;28;20492;-91
2022/06/29 02:24:23;;;;;;;3.40;1.43;;;16.70;99.90;;;;;;5105198;28;21076;-91
2022/06/29 02:26:50;;;;;;;3.97;2.40;;;16.70;99.90;;;;;;5103010;28;20460;-94
2022/06/29 02:29:17;;;;;;;1.80;1.37;;;16.70;99.90;;;;;;5105515;28;20482;-92
2022/06/29 02:34:46;;;;;;;3.23;2.17;;;16.80;99.90;;;;;;5103070;28;20453;-91
2022/06/29 02:37:13;;;;;;;4.57;2.30;;;16.80;99.90;;;;;;5103319;28;20469;-93
2022/06/29 02:39:42;;;;;;;3.97;1.93;;;16.80;99.90;;;;;;5106819;28;20458;-91
2022/06/29 02:42:11;;;;;;;2.60;1.80;;;16.90;99.90;;;;;;5102035;28;20462;-92
2022/06/29 02:44:39;;;;;;;1.97;1.37;;;16.90;99.90;;;;;;5097340;28;20927;-90
2022/06/29 02:47:09;;;;;;;8.33;2.20;;;17.10;99.90;;;;;;5097370;28;20526;-91
2022/06/29 02:49:37;;;;;;;2.70;1.60;;;17.20;99.90;;;;;;5101934;28;20882;-94
2022/06/29 02:52:05;;;;;;;1.60;1.33;;;17.30;99.90;;;;;;5102229;28;20457;-91
2022/06/29 02:54:33;;;;;;;2.10;1.80;;;17.20;99.90;;;;;;5105071;28;20461;-91
2022/06/29 02:57:00;;;;;;;4.60;2.63;;;17.20;99.90;;;;;;5105011;28;20450;-91
2022/06/29 02:59:28;;;;;;;2.17;1.40;;;17.20;99.90;;;;;;5101346;28;21035;-91
2022/06/29 03:01:55;;;;;;;2.20;1.43;;;17.20;99.90;;;;;;5101672;28;20964;-91
2022/06/29 03:04:25;;;;;;;2.67;1.90;;;17.10;99.90;;;;;;5105055;28;20511;-91
2022/06/29 03:06:52;;;;;;;1.50;1.40;;;17.10;99.90;;;;;;5099528;28;20451;-91
2022/06/29 03:09:20;;;;;;;1.50;1.40;;;17.10;99.90;;;;;;5103609;28;20570;-91
2022/06/29 03:11:47;;;;;;;2.03;1.27;;;17.00;99.90;;;;;;5100011;28;20783;-91
2022/06/29 03:14:15;;;;;;;1.43;1.10;;;17.10;99.90;;;;;;5103805;28;20990;-91
2022/06/29 03:16:42;;;;;;;4.57;3.13;;;17.10;99.90;;;;;;5101171;27;20450;-91
2022/06/29 03:19:10;;;;;;;3.77;2.30;;;17.00;99.90;;;;;;5099655;28;20458;-93
2022/06/29 03:21:39;;;;;;;1.17;1.03;;;17.00;99.90;;;;;;5105070;28;20911;-91
2022/06/29 03:24:07;;;;;;;1.73;1.37;;;17.00;99.90;;;;;;5105630;28;20484;-92
2022/06/29 03:26:35;;;;;;;1.83;1.73;;;17.00;99.90;;;;;;5100486;28;20541;-91
2022/06/29 03:29:02;;;;;;;3.77;2.40;;;17.10;99.90;;;;;;5099939;28;20534;-92
2022/06/29 03:31:30;;;;;;;2.67;1.63;;;17.20;99.90;;;;;;5096988;28;20511;-90
2022/06/29 03:33:58;;;;;;;2.40;1.63;;;17.30;99.90;;;;;;5103086;28;20458;-94
2022/06/29 03:36:25;;;;;;;5.37;1.60;;;17.40;99.90;;;;;;5102326;28;20453;-92
2022/06/29 03:38:54;;;;;;;2.07;1.87;;;17.30;99.90;;;;;;5102629;28;20552;-92
2022/06/29 03:41:22;;;;;;;5.40;2.37;;;17.20;99.90;;;;;;5099858;28;20461;-92
2022/06/29 03:43:50;;;;;;;2.60;2.30;;;17.10;99.90;;;;;;5103562;28;20454;-92
2022/06/29 03:46:18;;;;;;;2.33;1.87;;;17.10;99.90;;;;;;5101446;28;20476;-93
2022/06/29 03:48:45;;;;;;;1.87;1.40;;;17.10;99.90;;;;;;5102279;28;20480;-93
2022/06/29 03:51:13;;;;;;;2.70;2.33;;;17.10;99.90;;;;;;5102600;28;20468;-93
2022/06/29 03:53:40;;;;;;;1.83;1.73;;;17.00;99.90;;;;;;5104508;28;20475;-93
2022/06/29 03:56:09;;;;;;;5.30;1.80;;;16.90;99.90;;;;;;5104823;28;20515;-91
2022/06/29 03:58:37;;;;;;;2.10;1.10;;;16.90;99.90;;;;;;5106620;28;20479;-91
2022/06/29 04:01:05;;;;;;;1.63;1.43;;;16.90;99.90;;;;;;5108493;28;20600;-91
2022/06/29 04:03:33;;;;;;;6.57;2.20;;;16.90;99.90;;;;;;5111369;28;20816;-91
2022/06/29 04:06:01;;;;;;;1.80;1.70;;;16.90;99.90;;;;;;5107790;28;20530;-92
2022/06/29 04:08:29;;;;;;;3.67;2.50;;;16.90;99.90;;;;;;5110351;28;20493;-92
2022/06/29 04:10:57;;;;;;;5.70;1.63;;;16.90;99.90;;;;;;5105492;27;20468;-93
2022/06/29 04:13:27;;;;;;;3.17;2.77;;;17.00;99.90;;;;;;5111658;28;20957;-92
2022/06/29 04:15:55;;;;;;;3.27;2.30;;;17.10;99.90;;;;;;5110027;28;20458;-91
2022/06/29 04:18:22;;;;;;;2.17;1.60;;;17.20;99.90;;;;;;5106140;28;21012;-92
2022/06/29 04:21:08;;;;;;;3.40;2.20;;;17.30;99.90;;;;;;5103814;27;20474;-92
2022/06/29 04:23:36;;;;;;;1.50;1.10;;;17.40;99.90;;;;;;5112688;27;20458;-92
2022/06/29 04:29:11;;;;;;;2.80;2.60;;;17.40;99.90;;;;;;5103811;28;20558;-95
2022/06/29 04:34:36;;;;;;;4.47;1.77;;;17.40;99.90;;;;;;5101555;28;20460;-93
2022/06/29 04:37:03;;;;;;;3.37;2.27;;;17.30;99.90;;;;;;5107178;28;20489;-92
2022/06/29 04:39:31;;;;;;;4.57;1.77;;;17.30;99.90;;;;;;5110299;28;20449;-92
2022/06/29 04:41:59;;;;;;;3.03;2.73;;;17.40;99.90;;;;;;5109069;28;20462;-90
2022/06/29 04:44:28;;;;;;;3.87;2.90;;;17.40;99.90;;;;;;5102439;28;20458;-92
2022/06/29 04:46:56;;;;;;;3.60;2.50;;;17.40;99.90;;;;;;5105288;28;20452;-92
2022/06/29 04:49:25;;;;;;;3.37;3.10;;;17.50;99.90;;;;;;5101611;28;20486;-93
2022/06/29 04:51:53;;;;;;;6.60;3.03;;;17.60;99.90;;;;;;5110528;28;20442;-93
2022/06/29 04:54:20;;;;;;;1.93;1.70;;;17.60;99.90;;;;;;5106513;28;20473;-90
2022/06/29 04:56:47;;;;;;;3.83;2.40;;;17.40;99.90;;;;;;5103311;28;20469;-87
2022/06/29 04:59:15;;;;;;;3.53;3.23;;;17.40;99.90;;;;;;5119021;27;20434;-92
2022/06/29 05:01:47;;;;;;;4.93;3.63;;;17.40;99.90;;;;;;5131387;27;20449;-95
2022/06/29 05:04:15;;;;;;;2.97;2.77;;;17.50;99.90;;;;;;5135889;27;20593;-94
2022/06/29 05:06:42;;;;;;;3.80;3.47;;;17.50;99.90;;;;;;5131028;27;20458;-92
2022/06/29 05:09:10;;;;;;;8.50;2.73;;;17.50;99.90;;;;;;5103218;28;20478;-91
2022/06/29 05:11:38;;;;;;;5.27;3.30;;;17.40;99.90;;;;;;5106415;28;20458;-92
2022/06/29 05:14:05;;;;;;;5.43;3.60;;;17.40;99.90;;;;;;5105567;28;20488;-92
2022/06/29 05:16:33;;;;;;;5.43;2.40;;;17.40;99.90;;;;;;5112152;27;20502;-90
2022/06/29 05:19:01;;;;;;;4.70;3.00;;;17.30;99.90;;;;;;5106761;28;20503;-93
2022/06/29 05:21:30;;;;;;;3.53;2.70;;;17.40;99.90;;;;;;5105853;28;20519;-91
2022/06/29 05:23:57;;;;;;;6.73;2.53;;;17.30;99.90;;;;;;5102363;28;20477;-93
2022/06/29 05:26:24;;;;;;;4.83;2.70;;;17.40;99.90;;;;;;5102771;28;20461;-91
2022/06/29 05:28:52;;;;;;;4.67;3.57;;;17.30;99.90;;;;;;5104707;28;20478;-90
2022/06/29 05:31:19;;;;;;;3.17;2.73;;;17.20;99.90;;;;;;5107990;28;20465;-91
2022/06/29 05:33:46;;;;;;;3.70;2.50;;;17.30;99.90;;;;;;5106841;28;20573;-92
2022/06/29 05:36:15;;;;;;;2.77;2.57;;;17.30;99.90;;;;;;5104324;28;20809;-92
2022/06/29 05:38:43;;;;;;;4.00;2.53;;;17.30;99.90;;;;;;5102216;28;20911;-90
2022/06/29 05:41:10;;;;;;;5.70;2.40;;;17.40;99.90;;;;;;5105785;28;20462;-91
2022/06/29 05:43:39;;;;;;;2.80;1.97;;;17.60;99.90;;;;;;5106333;28;20482;-94
2022/06/29 05:46:06;;;;;;;3.60;3.10;;;17.60;99.90;;;;;;5104930;28;20975;-95
2022/06/29 05:48:34;;;;;;;4.73;2.33;;;17.60;99.90;;;;;;5107406;28;20465;-92
2022/06/29 05:51:01;;;;;;;3.23;2.93;;;17.60;99.90;;;;;;5102478;28;20457;-93
2022/06/29 05:53:31;;;;;;;6.43;4.13;;;17.60;99.90;;;;;;5107314;28;20874;-92
2022/06/29 05:55:59;;;;;;;3.53;2.30;;;17.70;99.90;;;;;;5104385;28;20470;-95
2022/06/29 05:58:26;;;;;;;4.53;3.70;;;17.70;99.90;;;;;;5107806;28;21207;-92
2022/06/29 06:00:54;;;;;;;2.80;2.60;;;17.80;99.90;;;;;;5100196;28;20580;-92
2022/06/29 06:03:22;;;;;;;3.47;2.60;;;17.80;99.90;;;;;;5105658;28;20509;-92
2022/06/29 06:05:49;;;;;;;3.70;3.37;;;17.70;99.90;;;;;;5103387;28;20471;-94
2022/06/29 06:08:17;;;;;;;5.30;4.30;;;17.80;99.90;;;;;;5102694;28;20465;-92
2022/06/29 06:10:46;;;;;;;3.97;2.93;;;17.80;99.90;;;;;;5106150;28;21136;-91
2022/06/29 06:13:14;;;;;;;11.33;3.47;;;17.90;99.90;;;;;;5105224;28;20511;-90
2022/06/29 06:15:41;;;;;;;5.83;4.07;;;17.90;99.90;;;;;;5107003;28;20454;-92
2022/06/29 06:18:09;;;;;;;5.00;4.60;;;17.90;99.90;;;;;;5107081;28;20465;-92
2022/06/29 06:20:36;;;;;;;6.13;3.63;;;17.80;99.90;;;;;;5102471;28;20881;-90
2022/06/29 06:23:03;;;;;;;10.13;3.83;;;17.80;99.90;;;;;;5105640;28;20528;-92
2022/06/29 06:25:31;;;;;;;9.23;3.57;;;17.80;99.90;;;;;;5105446;28;20803;-90
2022/06/29 06:28:01;;;;;;;6.43;4.07;;;17.90;99.90;;;;;;5102394;28;20467;-89
2022/06/29 06:30:28;;;;;;;4.57;3.80;;;18.00;99.90;;;;;;5101744;28;20488;-89
2022/06/29 06:32:55;;;;;;;5.80;4.00;;;18.00;99.90;;;;;;5102717;28;20462;-89
2022/06/29 06:35:22;;;;;;;6.93;3.90;;;18.10;99.90;;;;;;5099046;28;20447;-87
2022/06/29 06:37:51;;;;;;;5.43;4.53;;;18.20;99.90;;;;;;5098608;28;20696;-87
2022/06/29 06:43:04;;;;;;;6.70;4.97;;;18.50;99.90;;;;;;5097156;27;20603;-89
2022/06/29 06:45:31;;;;;;;4.47;3.90;;;18.70;99.90;;;;;;5093794;28;20465;-89
2022/06/29 06:47:58;;;;;;;6.93;3.80;;;19.00;99.90;;;;;;5103886;27;20511;-90
2022/06/29 06:50:25;;;;;;;4.13;3.73;;;19.10;99.90;;;;;;5100796;28;21014;-91
2022/06/29 06:52:52;;;;;;;6.57;3.30;;;19.40;99.90;;;;;;5102179;28;20452;-88
2022/06/29 06:55:19;;;;;;;6.63;4.33;;;19.60;99.90;;;;;;5105572;27;20486;-89
2022/06/29 06:57:46;;;;;;;4.57;4.13;;;19.90;99.90;;;;;;5103729;28;20449;-86
2022/06/29 07:00:15;;;;;;;5.10;3.47;;;19.80;99.90;;;;;;5101182;28;20507;-87
2022/06/29 07:02:43;;;;;;;4.43;3.30;;;19.70;99.90;;;;;;5095606;27;20469;-89
2022/06/29 07:05:10;;;;;;;5.17;3.10;;;19.40;99.90;;;;;;5101953;28;20831;-87
2022/06/29 07:07:37;;;;;;;3.83;2.80;;;19.50;99.90;;;;;;5098032;28;20471;-87
2022/06/29 07:10:05;;;;;;;3.07;2.87;;;19.50;99.90;;;;;;5101982;28;21002;-88
2022/06/29 07:12:32;;;;;;;3.87;3.57;;;19.50;99.90;;;;;;5096499;28;20468;-89
2022/06/29 07:14:59;;;;;;;3.23;2.73;;;19.50;99.90;;;;;;5092836;28;20500;-88
2022/06/29 07:17:28;;;;;;;4.70;2.90;;;19.60;99.90;;;;;;5097488;27;20546;-87
2022/06/29 07:19:55;;;;;;;3.47;3.17;;;19.70;99.90;;;;;;5097727;27;20462;-91
2022/06/29 07:22:22;;;;;;;3.90;3.00;;;19.80;99.90;;;;;;5104140;27;20449;-88
2022/06/29 07:24:49;;;;;;;3.93;2.97;;;19.90;99.90;;;;;;5100988;27;20472;-88
2022/06/29 07:27:16;;;;;;;4.77;2.70;;;19.70;99.90;;;;;;5097125;27;20473;-90
2022/06/29 07:29:43;;;;;;;4.37;3.80;;;19.70;99.90;;;;;;5084601;28;20496;-88
2022/06/29 07:32:10;;;;;;;4.73;3.60;;;19.50;99.90;;;;;;5105272;28;20456;-88
2022/06/29 07:34:39;;;;;;;3.33;2.60;;;19.60;99.90;;;;;;5104036;28;20492;-91
2022/06/29 07:37:06;;;;;;;5.33;3.13;;;19.80;99.90;;;;;;5104200;28;20534;-88
2022/06/29 07:39:33;;;;;;;4.57;3.60;;;19.90;99.90;;;;;;5102533;28;20561;-90
2022/06/29 07:42:00;;;;;;;3.97;2.97;;;19.80;99.90;;;;;;5103808;28;20454;-89
2022/06/29 07:44:27;;;;;;;6.77;4.00;;;19.50;99.90;;;;;;5102904;28;20455;-88
2022/06/29 07:46:54;;;;;;;8.50;5.40;;;19.20;99.90;;;;;;5101301;28;20464;-89
2022/06/29 07:49:21;;;;;;;7.40;5.30;;;19.20;99.90;;;;;;5102851;28;20529;-89
2022/06/29 07:51:52;;;;;;;4.77;3.50;;;19.10;99.90;;;;;;5104023;28;20462;-88
2022/06/29 07:54:19;;;;;;;6.10;5.60;;;19.00;99.90;;;;;;5115419;28;20445;-88
2022/06/29 07:56:46;;;;;;;4.07;3.57;;;19.00;99.90;;;;;;5127396;28;20486;-90
2022/06/29 07:59:13;;;;;;;6.30;4.73;;;19.00;99.90;;;;;;5127509;28;20441;-86
2022/06/29 08:01:40;;;;;;;5.20;4.13;;;19.00;99.90;;;;;;5127020;28;20496;-87
2022/06/29 08:04:07;;;;;;;5.33;4.73;;;19.00;99.90;;;;;;5107294;28;20462;-87
2022/06/29 08:06:34;;;;;;;4.97;3.40;;;19.10;99.90;;;;;;5104639;28;20504;-87
2022/06/29 08:09:03;;;;;;;6.23;5.00;;;19.10;99.90;;;;;;5104610;28;20434;-87
2022/06/29 08:11:30;;;;;;;6.43;4.80;;;19.20;99.90;;;;;;5105431;28;20490;-87
2022/06/29 08:13:57;;;;;;;8.10;5.80;;;19.20;99.90;;;;;;5102973;28;20473;-87
2022/06/29 08:16:24;;;;;;;7.17;5.03;;;19.20;99.90;;;;;;5104314;28;20451;-88
2022/06/29 08:18:51;;;;;;;4.33;3.93;;;19.40;99.90;;;;;;5102964;28;20890;-88
2022/06/29 08:21:18;;;;;;;6.60;4.70;;;19.60;99.90;;;;;;5106414;28;20476;-88
2022/06/29 08:23:45;;;;;;;4.07;3.70;;;19.70;99.90;;;;;;5104068;28;20444;-88
2022/06/29 08:26:13;;;;;;;6.17;5.17;;;20.00;99.90;;;;;;5099333;28;20546;-87
2022/06/29 08:28:40;;;;;;;8.73;5.17;;;20.10;99.90;;;;;;5111032;28;20444;-90
2022/06/29 08:31:07;;;;;;;14.63;5.00;;;20.20;99.90;;;;;;5103456;28;20489;-90
2022/06/29 08:33:34;;;;;;;3.90;2.80;;;20.30;99.90;;;;;;5103737;28;21036;-88
2022/06/29 08:36:01;;;;;;;4.73;4.00;;;20.50;99.90;;;;;;5104032;28;20485;-88
2022/06/29 08:38:28;;;;;;;5.13;3.53;;;20.60;99.90;;;;;;5101839;28;20438;-90
2022/06/29 08:40:56;;;;;;;5.03;4.17;;;20.60;99.90;;;;;;5100687;28;21159;-89
2022/06/29 08:43:25;;;;;;;5.80;4.43;;;20.70;99.90;;;;;;5105406;28;20478;-88
2022/06/29 08:45:53;;;;;;;5.87;3.73;;;20.70;99.90;;;;;;5105499;27;21043;-91
2022/06/29 08:48:24;;;;;;;5.53;4.50;;;20.80;99.90;;;;;;5105053;27;20509;-89
2022/06/29 08:50:53;;;;;;;10.70;4.17;;;20.90;99.90;;;;;;5100485;28;20486;-88
2022/06/29 08:53:22;;;;;;;4.70;3.47;;;20.90;99.90;;;;;;5099134;28;20466;-90
2022/06/29 08:55:51;;;;;;;6.77;4.77;;;20.90;99.90;;;;;;5105476;28;20516;-88
2022/06/29 08:58:20;;;;;;;9.87;4.70;;;20.90;99.90;;;;;;5099872;28;20523;-88
2022/06/29 09:00:50;;;;;;;3.97;3.60;;;20.70;99.90;;;;;;5103826;28;20518;-89
2022/06/29 09:03:18;;;;;;;4.00;3.60;;;20.50;99.90;;;;;;5105825;28;20449;-88
2022/06/29 09:05:48;;;;;;;4.50;4.10;;;20.40;99.90;;;;;;5102668;28;20459;-88
2022/06/29 09:08:15;;;;;;;6.87;4.90;;;20.50;99.90;;;;;;5103810;28;20504;-90
2022/06/29 09:10:42;;;;;;;4.73;3.57;;;20.50;99.90;;;;;;5107048;28;20493;-88
2022/06/29 09:13:10;;;;;;;5.63;4.03;;;20.40;99.90;;;;;;5104366;28;20470;-87
2022/06/29 09:15:39;;;;;;;5.40;4.30;;;20.30;99.90;;;;;;5106542;28;20980;-90
2022/06/29 09:18:25;;;;;;;5.60;3.63;;;20.20;99.90;;;;;;5106750;28;20475;-89
2022/06/29 09:20:54;;;;;;;4.17;3.30;;;20.10;99.90;;;;;;5106938;28;20546;-91
2022/06/29 09:23:21;;;;;;;7.97;4.50;;;19.90;99.90;;;;;;5107034;27;20582;-87
2022/06/29 09:25:48;;;;;;;5.47;4.30;;;19.90;99.90;;;;;;5106461;28;20517;-88
2022/06/29 09:28:23;;;;;;;13.33;5.20;;;19.90;99.90;;;;;;5107498;28;20449;-88
2022/06/29 09:30:52;;;;;;;4.60;3.53;;;20.00;99.90;;;;;;5104893;28;21217;-90
2022/06/29 09:33:22;;;;;;;6.37;4.80;;;20.10;99.90;;;;;;5099448;28;20652;-89
2022/06/29 09:36:07;;;;;;;5.10;3.67;;;20.10;99.90;;;;;;5106000;28;20499;-88
2022/06/29 09:38:34;;;;;;;5.10;4.60;;;20.10;99.90;;;;;;5106997;28;20503;-88
2022/06/29 09:41:03;;;;;;;7.27;4.17;;;20.10;99.90;;;;;;5105570;28;21244;-91
2022/06/29 09:43:32;;;;;;;4.50;3.47;;;20.20;99.90;;;;;;5100313;28;20460;-91
2022/06/29 09:46:00;;;;;;;9.60;4.60;;;20.00;99.90;;;;;;5104536;27;20874;-87
2022/06/29 09:48:30;;;;;;;5.53;3.90;;;20.00;99.90;;;;;;5105542;28;20505;-88
2022/06/29 09:50:58;;;;;;;10.20;4.30;;;20.10;99.90;;;;;;5106537;28;20477;-88
2022/06/29 09:53:28;;;;;;;5.93;5.43;;;20.00;99.90;;;;;;5105830;28;20484;-88
2022/06/29 09:55:57;;;;;;;5.37;4.83;;;19.90;99.90;;;;;;5102741;28;21235;-88
2022/06/29 09:58:33;;;;;;;5.27;4.10;;;20.10;99.90;;;;;;5106003;28;20918;-91
2022/06/29 10:03:51;;;;;;;4.27;3.87;;;20.30;99.90;;;;;;5105890;28;20449;-91
2022/06/29 10:06:18;;;;;;;4.53;3.87;;;20.70;99.90;;;;;;5098568;28;20461;-89
2022/06/29 10:08:46;;;;;;;5.83;4.00;;;20.90;99.90;;;;;;5105838;28;21025;-90
2022/06/29 10:14:15;;;;;;;4.33;3.93;;;21.60;99.90;;;;;;5103515;28;20437;-88
2022/06/29 10:16:50;;;;;;;4.33;3.37;;;21.80;99.90;;;;;;5099204;28;20468;-89
2022/06/29 10:19:38;;;;;;;4.77;4.30;;;21.80;99.90;;;;;;5099346;28;20449;-88
2022/06/29 10:22:05;;;;;;;8.20;4.50;;;22.20;99.90;;;;;;5104011;28;20512;-92
2022/06/29 10:24:32;;;;;;;5.53;3.77;;;22.20;99.90;;;;;;5101327;28;20450;-88
2022/06/29 10:27:06;;;;;;;6.73;4.67;;;22.00;99.90;;;;;;5105596;28;20450;-90
2022/06/29 10:29:35;;;;;;;3.30;3.07;;;22.20;99.90;;;;;;5102631;28;20541;-88
2022/06/29 10:32:13;;;;;;;4.03;3.57;;;22.40;99.90;;;;;;5104446;28;20489;-91
2022/06/29 10:37:28;;;;;;;8.57;4.70;;;22.30;99.90;;;;;;5096635;28;20465;-89
2022/06/29 10:39:58;;;;;;;5.10;3.57;;;22.10;99.90;;;;;;5099206;28;20466;-88
2022/06/29 10:45:37;;;;;;;5.20;4.60;;;23.90;99.90;;;;;;5099933;27;20502;-91
2022/06/29 10:48:24;;;;;;;3.70;3.40;;;23.90;99.90;;;;;;5102831;28;20466;-88
2022/06/29 10:50:53;;;;;;;4.17;3.63;;;24.40;99.90;;;;;;5124464;28;20539;-88
2022/06/29 10:53:21;;;;;;;2.60;2.23;;;24.50;99.90;;;;;;5125353;27;20458;-87
2022/06/29 10:55:50;;;;;;;3.57;3.20;;;24.80;99.90;;;;;;5125051;28;20827;-85
2022/06/29 10:58:18;;;;;;;4.37;3.97;;;24.70;99.90;;;;;;5110915;27;21006;-89
2022/06/29 11:00:46;;;;;;;4.30;3.43;;;24.30;99.90;;;;;;5093800;28;20816;-90
2022/06/29 11:03:17;;;;;;;4.30;3.67;;;24.50;99.90;;;;;;5102313;27;20469;-86
2022/06/29 11:14:04;;;;;;;3.23;2.93;;;25.10;99.90;;;;;;5090945;27;20832;-87
2022/06/29 11:16:33;;;;;;;5.33;3.63;;;25.70;99.90;;;;;;5100391;28;20827;-89
2022/06/29 11:19:00;;;;;;;4.07;3.00;;;26.20;99.90;;;;;;5093345;28;22222;-90
2022/06/29 11:21:29;;;;;;;6.53;4.00;;;26.20;99.90;;;;;;5097194;27;21030;-87
2022/06/29 11:24:02;;;;;;;3.37;3.10;;;26.40;99.90;;;;;;5101397;28;20521;-87
2022/06/29 11:26:30;;;;;;;4.57;2.90;;;25.90;99.90;;;;;;5097643;27;20466;-86
2022/06/29 11:28:58;;;;;;;2.73;2.50;;;25.40;99.90;;;;;;5094721;28;20491;-89
2022/06/29 11:31:25;;;;;;;3.47;3.27;;;24.70;99.90;;;;;;5098340;28;20486;-88
2022/06/29 11:33:54;;;;;;;2.10;1.80;;;25.20;99.90;;;;;;5097815;28;20457;-88
2022/06/29 11:36:23;;;;;;;5.30;3.57;;;25.40;99.90;;;;;;5099282;28;20999;-87
2022/06/29 11:38:52;;;;;;;2.10;1.90;;;25.30;99.90;;;;;;5094503;28;20525;-87
2022/06/29 11:41:22;;;;;;;3.07;2.23;;;25.00;99.90;;;;;;5097092;28;20462;-87
2022/06/29 11:44:02;;;;;;;3.20;2.87;;;24.90;99.90;;;;;;5095357;28;20473;-87
2022/06/29 11:46:32;;;;;;;3.27;3.03;;;25.10;99.90;;;;;;5093260;28;20466;-87
2022/06/29 11:51:51;;;;;;;2.70;2.50;;;25.10;99.90;;;;;;5097291;28;21118;-83
2022/06/29 11:54:19;;;;;;;3.00;2.80;;;25.00;99.90;;;;;;5084848;28;20458;-83
2022/06/29 11:56:47;;;;;;;2.00;1.83;;;25.00;99.90;;;;;;5101423;28;20464;-85
2022/06/29 11:59:17;;;;;;;2.37;2.17;;;25.20;99.90;;;;;;5100461;28;20988;-84
2022/06/29 12:01:53;;;;;;;2.40;2.20;;;25.30;99.90;;;;;;5096492;28;21008;-86
2022/06/29 12:04:29;;;;;;;5.97;3.27;;;25.50;99.90;;;;;;5098144;28;20514;-89
2022/06/29 12:07:07;;;;;;;5.50;1.80;;;25.40;99.90;;;;;;5100021;28;20515;-87
2022/06/29 12:09:35;;;;;;;1.43;1.33;;;25.40;99.90;;;;;;5093815;28;20589;-87
2022/06/29 12:12:04;;;;;;;1.20;1.00;;;25.50;99.90;;;;;;5091009;28;20531;-89
2022/06/29 12:14:31;;;;;;;1.30;1.27;;;25.30;99.90;;;;;;5094681;28;20563;-89
2022/06/29 12:16:58;;;;;;;2.80;2.27;;;25.80;99.90;;;;;;5100055;28;20530;-87
2022/06/29 12:19:25;;;;;;;1.20;1.10;;;26.10;99.90;;;;;;5101839;28;20462;-87
2022/06/29 12:21:53;;;;;;;1.50;1.40;;;26.40;99.90;;;;;;5100725;27;20493;-89
2022/06/29 12:24:21;;;;;;;1.93;1.10;;;26.30;99.90;;;;;;5096688;27;20472;-88
2022/06/29 12:26:48;;;;;;;1.87;1.43;;;26.30;99.90;;;;;;5094583;27;20462;-88
2022/06/29 12:29:17;;;;;;;2.23;1.20;;;26.10;99.90;;;;;;5102921;28;20453;-88
2022/06/29 12:31:44;;;;;;;1.30;1.20;;;26.20;99.90;;;;;;5086164;27;20943;-89
2022/06/29 12:34:12;;;;;;;1.83;1.30;;;25.90;99.90;;;;;;5097338;27;20577;-91
2022/06/29 12:36:40;;;;;;;3.20;1.30;;;25.90;99.90;;;;;;5102269;27;20523;-91
2022/06/29 12:39:07;;;;;;;1.10;1.00;;;25.80;99.90;;;;;;5105331;28;20458;-90
2022/06/29 12:41:35;;;;;;;2.13;1.20;;;25.70;99.90;;;;;;5103492;27;20457;-87
2022/06/29 12:44:03;;;;;;;1.10;1.00;;;26.00;99.90;;;;;;5098656;28;20458;-91
2022/06/29 12:46:32;;;;;;;0.80;0.80;;;26.70;99.90;;;;;;5093704;28;20476;-89
2022/06/29 12:49:00;;;;;;;1.17;0.93;;;26.60;99.90;;;;;;5101964;28;20964;-88
2022/06/29 12:51:28;;;;;;;1.33;1.23;;;27.00;99.90;;;;;;5100311;28;21087;-87
2022/06/29 12:53:55;;;;;;;1.97;0.90;;;27.00;99.90;;;;;;5102737;27;20507;-87
2022/06/29 12:56:22;;;;;;;2.70;1.10;;;26.70;99.90;;;;;;5098746;28;20461;-88
2022/06/29 12:58:49;;;;;;;0.93;0.93;;;26.70;99.90;;;;;;5095535;28;20469;-89
2022/06/29 13:01:16;;;;;;;1.10;0.80;;;26.40;99.90;;;;;;5094836;27;20463;-91
2022/06/29 13:03:45;;;;;;;1.23;1.13;;;27.10;99.90;;;;;;5100554;28;20468;-89
2022/06/29 13:06:12;;;;;;;1.73;1.63;;;27.10;99.90;;;;;;5100598;27;20480;-90
2022/06/29 13:08:39;;;;;;;1.33;1.00;;;27.90;99.90;;;;;;5102387;28;21297;-88
2022/06/29 13:11:06;;;;;;;2.07;1.00;;;28.00;99.90;;;;;;5105344;28;20468;-88
2022/06/29 13:13:33;;;;;;;1.37;1.27;;;27.40;99.90;;;;;;5101514;28;20531;-88
2022/06/29 13:16:00;;;;;;;1.03;1.03;;;26.40;99.90;;;;;;5095687;27;20462;-89
2022/06/29 13:18:27;;;;;;;1.27;1.17;;;26.10;99.90;;;;;;5096068;28;20555;-89
2022/06/29 13:20:56;;;;;;;2.93;2.13;;;26.10;99.90;;;;;;5106343;28;20494;-92
2022/06/29 13:23:23;;;;;;;1.37;1.27;;;26.50;99.90;;;;;;5100374;28;20590;-88
2022/06/29 13:25:50;;;;;;;1.50;1.40;;;26.30;99.90;;;;;;5102784;28;20462;-89